Time;durP1;ratioP1;P1;durP2;ratioP2;P2;SDS_P1;SDS_P2;PMS_P1;PMS_P2;Temp;Humidity;BMP_temperature;BMP_pressure;BME280_temperature;BME280_humidity;BME280_pressure;Samples;Min_cycle;Max_cycle;Signal;HPM_P1;HPM_P2
2023/06/20 00:01:33;;;;;;;;;;;;;;;;;;5027234;28;91106;-73
2023/06/20 00:03:58;;;;;;;;;;;;;;;;;;5027455;28;89869;-73
2023/06/20 00:06:24;;;;;;;;;;;;;;;;;;5024823;27;91365;-73
2023/06/20 00:08:50;;;;;;;;;;;;;;;;;;5027171;28;89955;-73
2023/06/20 00:11:15;;;;;;;;;;;;;;;;;;5027180;28;89118;-71
2023/06/20 00:13:42;;;;;;;;;;;;;;;;;;5025752;28;92591;-72
2023/06/20 00:16:08;;;;;;;;;;;;;;;;;;5018670;28;90281;-72
2023/06/20 00:18:33;;;;;;;;;;;;;;;;;;5027497;27;90008;-72
2023/06/20 00:20:58;;;;;;;;;;;;;;;;;;5027204;28;89391;-72
2023/06/20 00:23:24;;;;;;;;;;;;;;;;;;5026955;28;89106;-72
2023/06/20 00:25:50;;;;;;;;;;;;;;;;;;5027373;28;90285;-72
2023/06/20 00:28:18;;;;;;;;;;;;;;;;;;5023477;28;90566;-71
2023/06/20 00:30:44;;;;;;;;;;;;;;;;;;5026909;28;89056;-71
2023/06/20 00:33:09;;;;;;;;;;;;;;;;;;5027440;27;89520;-72
2023/06/20 00:35:34;;;;;;;;;;;;;;;;;;5023751;28;91971;-71
2023/06/20 00:38:01;;;;;;;;;;;;;;;;;;5030783;27;90362;-70
2023/06/20 00:40:26;;;;;;;;;;;;;;;;;;5026918;28;89770;-71
2023/06/20 00:42:52;;;;;;;;;;;;;;;;;;5026486;27;89402;-70
2023/06/20 00:45:32;;;;;;;;;;;;;;;;;;5030562;27;92377;-70
2023/06/20 00:47:57;;;;;;;;;;;;;;;;;;5023865;28;90516;-70
2023/06/20 00:50:26;;;;;;;;;;;;;;;;;;5026834;27;89042;-70
2023/06/20 00:52:54;;;;;;;;;;;;;;;;;;5023655;28;92766;-71
2023/06/20 00:55:19;;;;;;;;;;;;;;;;;;5021321;28;92227;-71
2023/06/20 00:57:45;;;;;;;;;;;;;;;;;;5026085;28;89630;-71
2023/06/20 01:00:12;;;;;;;;;;;;;;;;;;5029236;28;89788;-72
2023/06/20 01:02:37;;;;;;;;;;;;;;;;;;5026480;28;89417;-72
2023/06/20 01:05:03;;;;;;;;;;;;;;;;;;5024536;27;91081;-70
2023/06/20 01:07:37;;;;;;;;;;;;;;;;;;5025563;28;90151;-71
2023/06/20 01:10:08;;;;;;;;;;;;;;;;;;5026522;28;89969;-71
2023/06/20 01:12:52;;;;;;;;;;;;;;;;;;5026636;27;89678;-71
2023/06/20 01:15:41;;;;;;;;;;;;;;;;;;5025509;27;92558;-71
2023/06/20 01:18:25;;;;;;;;;;;;;;;;;;5025264;28;89255;-72
2023/06/20 01:20:54;;;;;;;;;;;;;;;;;;5025281;28;89750;-72
2023/06/20 01:23:37;;;;;;;;;;;;;;;;;;5028324;28;92750;-73
2023/06/20 01:26:05;;;;;;;;;;;;;;;;;;5019605;28;89785;-73
2023/06/20 01:28:41;;;;;;;;;;;;;;;;;;5017911;28;89218;-73
2023/06/20 01:31:15;;;;;;;;;;;;;;;;;;5023599;28;91056;-72
2023/06/20 01:33:46;;;;;;;;;;;;;;;;;;5019885;28;90022;-71
2023/06/20 01:36:13;;;;;;;;;;;;;;;;;;5036840;27;90931;-72
2023/06/20 01:38:39;;;;;;;;;;;;;;;;;;5025786;28;89135;-72
2023/06/20 01:41:06;;;;;;;;;;;;;;;;;;5025337;28;90082;-71
2023/06/20 01:43:32;;;;;;;;;;;;;;;;;;5023740;27;90790;-71
2023/06/20 01:46:00;;;;;;;;;;;;;;;;;;5028202;28;89644;-71
2023/06/20 01:48:27;;;;;;;;;;;;;;;;;;5025136;27;89323;-73
2023/06/20 01:50:53;;;;;;;;;;;;;;;;;;5025696;27;89258;-72
2023/06/20 01:53:20;;;;;;;;;;;;;;;;;;5024858;28;90714;-71
2023/06/20 01:55:47;;;;;;;;;;;;;;;;;;5020443;27;89562;-72
2023/06/20 01:58:13;;;;;;;;;;;;;;;;;;5025498;28;89126;-72
2023/06/20 02:00:39;;;;;;;;;;;;;;;;;;5026080;28;90101;-72
2023/06/20 02:03:05;;;;;;;;;;;;;;;;;;5025622;28;90772;-72
2023/06/20 02:05:34;;;;;;;;;;;;;;;;;;5028981;27;89626;-71
2023/06/20 02:07:59;;;;;;;;;;;;;;;;;;5024542;28;89632;-71
2023/06/20 02:10:25;;;;;;;;;;;;;;;;;;5024806;27;89246;-72
2023/06/20 02:12:52;;;;;;;;;;;;;;;;;;5023948;27;90309;-72
2023/06/20 02:15:18;;;;;;;;;;;;;;;;;;5025364;28;89281;-72
2023/06/20 02:17:44;;;;;;;;;;;;;;;;;;5025262;27;89130;-71
2023/06/20 02:20:09;;;;;;;;;;;;;;;;;;5024870;28;89527;-72
2023/06/20 02:22:35;;;;;;;;;;;;;;;;;;5025007;28;89577;-71
2023/06/20 02:25:04;;;;;;;;;;;;;;;;;;5025324;27;89051;-72
2023/06/20 02:27:29;;;;;;;;;;;;;;;;;;5027921;27;90639;-72
2023/06/20 02:29:56;;;;;;;;;;;;;;;;;;5026986;27;89083;-72
2023/06/20 02:32:23;;;;;;;;;;;;;;;;;;5028612;27;89214;-71
2023/06/20 02:34:49;;;;;;;;;;;;;;;;;;5028776;27;89768;-71
2023/06/20 02:37:14;;;;;;;;;;;;;;;;;;5029450;28;89076;-72
2023/06/20 02:39:40;;;;;;;;;;;;;;;;;;5028104;28;89597;-71
2023/06/20 02:42:05;;;;;;;;;;;;;;;;;;5029353;28;89448;-71
2023/06/20 02:44:30;;;;;;;;;;;;;;;;;;5026385;28;89459;-72
2023/06/20 02:46:56;;;;;;;;;;;;;;;;;;5009319;28;89733;-71
2023/06/20 02:49:21;;;;;;;;;;;;;;;;;;5012583;28;90000;-72
2023/06/20 02:51:55;;;;;;;;;;;;;;;;;;5009636;28;90228;-72
2023/06/20 02:54:23;;;;;;;;;;;;;;;;;;5009202;28;89467;-72
2023/06/20 02:56:53;;;;;;;;;;;;;;;;;;5024342;28;90117;-72
2023/06/20 02:59:18;;;;;;;;;;;;;;;;;;5007416;28;92972;-72
2023/06/20 03:01:47;;;;;;;;;;;;;;;;;;5012636;28;89905;-70
2023/06/20 03:04:13;;;;;;;;;;;;;;;;;;5009004;28;89278;-71
2023/06/20 03:06:41;;;;;;;;;;;;;;;;;;5023311;28;91002;-71
2023/06/20 03:09:06;;;;;;;;;;;;;;;;;;5008490;28;89613;-71
2023/06/20 03:11:31;;;;;;;;;;;;;;;;;;5020917;28;89762;-72
2023/06/20 03:13:58;;;;;;;;;;;;;;;;;;5029152;27;91227;-72
2023/06/20 03:16:26;;;;;;;;;;;;;;;;;;5028916;28;89173;-72
2023/06/20 03:18:51;;;;;;;;;;;;;;;;;;5028653;27;91040;-72
2023/06/20 03:21:16;;;;;;;;;;;;;;;;;;5028662;28;90032;-72
2023/06/20 03:23:42;;;;;;;;;;;;;;;;;;5028350;27;89444;-72
2023/06/20 03:26:07;;;;;;;;;;;;;;;;;;5011645;28;89763;-72
2023/06/20 03:28:32;;;;;;;;;;;;;;;;;;5008321;28;90494;-73
2023/06/20 03:30:57;;;;;;;;;;;;;;;;;;5011512;28;89481;-72
2023/06/20 03:33:23;;;;;;;;;;;;;;;;;;5027500;28;88974;-71
2023/06/20 03:35:48;;;;;;;;;;;;;;;;;;5008628;28;89089;-72
2023/06/20 03:38:13;;;;;;;;;;;;;;;;;;5009821;28;90321;-71
2023/06/20 03:40:38;;;;;;;;;;;;;;;;;;5027501;28;90761;-72
2023/06/20 03:43:03;;;;;;;;;;;;;;;;;;5028837;28;90536;-73
2023/06/20 03:45:29;;;;;;;;;;;;;;;;;;5028243;28;89812;-72
2023/06/20 03:47:54;;;;;;;;;;;;;;;;;;5028524;28;89117;-72
2023/06/20 03:50:19;;;;;;;;;;;;;;;;;;5028103;28;89051;-73
2023/06/20 03:52:44;;;;;;;;;;;;;;;;;;5028512;28;89913;-72
2023/06/20 03:55:09;;;;;;;;;;;;;;;;;;5031328;28;89385;-72
2023/06/20 03:57:35;;;;;;;;;;;;;;;;;;5028262;28;89750;-72
2023/06/20 04:00:01;;;;;;;;;;;;;;;;;;5028470;27;89806;-71
2023/06/20 04:02:26;;;;;;;;;;;;;;;;;;5028418;27;89374;-72
2023/06/20 04:04:51;;;;;;;;;;;;;;;;;;5027859;28;89787;-71
2023/06/20 04:07:20;;;;;;;;;;;;;;;;;;5027233;28;89237;-72
2023/06/20 04:09:49;;;;;;;;;;;;;;;;;;5021727;28;90178;-73
2023/06/20 04:12:14;;;;;;;;;;;;;;;;;;5024788;27;90362;-72
2023/06/20 04:14:40;;;;;;;;;;;;;;;;;;5019967;28;89328;-72
2023/06/20 04:17:05;;;;;;;;;;;;;;;;;;5026322;27;89654;-72
2023/06/20 04:19:32;;;;;;;;;;;;;;;;;;5026186;28;89964;-72
2023/06/20 04:21:58;;;;;;;;;;;;;;;;;;5025714;27;88959;-73
2023/06/20 04:24:23;;;;;;;;;;;;;;;;;;5024754;28;92483;-73
2023/06/20 04:26:49;;;;;;;;;;;;;;;;;;5026739;28;89481;-73
2023/06/20 04:29:14;;;;;;;;;;;;;;;;;;5026045;28;89094;-73
2023/06/20 04:31:39;;;;;;;;;;;;;;;;;;5024809;28;91642;-73
2023/06/20 04:34:04;;;;;;;;;;;;;;;;;;5024871;28;90135;-73
2023/06/20 04:36:34;;;;;;;;;;;;;;;;;;5030469;28;90358;-73
2023/06/20 04:38:59;;;;;;;;;;;;;;;;;;5025938;27;90196;-73
2023/06/20 04:41:24;;;;;;;;;;;;;;;;;;5027259;28;90445;-73
2023/06/20 04:43:50;;;;;;;;;;;;;;;;;;5026219;28;90118;-73
2023/06/20 04:46:15;;;;;;;;;;;;;;;;;;5033252;27;92398;-73
2023/06/20 04:48:41;;;;;;;;;;;;;;;;;;5020874;27;89488;-73
2023/06/20 04:51:07;;;;;;;;;;;;;;;;;;5023042;28;89762;-73
2023/06/20 04:53:33;;;;;;;;;;;;;;;;;;5025672;27;90303;-73
2023/06/20 04:55:59;;;;;;;;;;;;;;;;;;5024757;28;90847;-73
2023/06/20 04:58:27;;;;;;;;;;;;;;;;;;5028535;28;89869;-73
2023/06/20 05:00:53;;;;;;;;;;;;;;;;;;5024983;28;89156;-73
2023/06/20 05:03:19;;;;;;;;;;;;;;;;;;5032204;27;92825;-73
2023/06/20 05:05:45;;;;;;;;;;;;;;;;;;5025917;28;90344;-74
2023/06/20 05:08:10;;;;;;;;;;;;;;;;;;5025645;27;89576;-72
2023/06/20 05:10:35;;;;;;;;;;;;;;;;;;5025883;27;89687;-73
2023/06/20 05:13:00;;;;;;;;;;;;;;;;;;5024134;28;92111;-73
2023/06/20 05:15:26;;;;;;;;;;;;;;;;;;5026176;28;89101;-73
2023/06/20 05:17:52;;;;;;;;;;;;;;;;;;5025540;28;89704;-74
2023/06/20 05:20:17;;;;;;;;;;;;;;;;;;5029357;28;89894;-73
2023/06/20 05:22:42;;;;;;;;;;;;;;;;;;5025507;28;90273;-73
2023/06/20 05:25:07;;;;;;;;;;;;;;;;;;5025269;28;89549;-74
2023/06/20 05:27:33;;;;;;;;;;;;;;;;;;5025645;28;88978;-75
2023/06/20 05:29:58;;;;;;;;;;;;;;;;;;5025731;28;89563;-73
2023/06/20 05:32:23;;;;;;;;;;;;;;;;;;5025412;28;89760;-74
2023/06/20 05:34:48;;;;;;;;;;;;;;;;;;5018208;28;89833;-74
2023/06/20 05:37:14;;;;;;;;;;;;;;;;;;5019782;28;90838;-73
2023/06/20 05:39:39;;;;;;;;;;;;;;;;;;5026026;27;92197;-73
2023/06/20 05:42:04;;;;;;;;;;;;;;;;;;5027781;28;89977;-72
2023/06/20 05:44:29;;;;;;;;;;;;;;;;;;5025002;27;90508;-72
2023/06/20 05:46:55;;;;;;;;;;;;;;;;;;5023271;28;90254;-72
2023/06/20 05:49:21;;;;;;;;;;;;;;;;;;5021008;28;90400;-72
2023/06/20 05:51:47;;;;;;;;;;;;;;;;;;5020028;28;89514;-70
2023/06/20 05:54:13;;;;;;;;;;;;;;;;;;5021843;28;89477;-74
2023/06/20 05:56:38;;;;;;;;;;;;;;;;;;5025570;27;89492;-72
2023/06/20 05:59:04;;;;;;;;;;;;;;;;;;5025159;28;89413;-73
2023/06/20 06:01:29;;;;;;;;;;;;;;;;;;5022647;28;90369;-73
2023/06/20 06:03:55;;;;;;;;;;;;;;;;;;5022096;28;90293;-71
2023/06/20 06:06:20;;;;;;;;;;;;;;;;;;5021721;27;90166;-71
2023/06/20 06:08:45;;;;;;;;;;;;;;;;;;5022555;28;89583;-71
2023/06/20 06:11:11;;;;;;;;;;;;;;;;;;5024227;28;89804;-74
2023/06/20 06:13:38;;;;;;;;;;;;;;;;;;5028837;28;89620;-73
2023/06/20 06:16:03;;;;;;;;;;;;;;;;;;5019126;28;90099;-75
2023/06/20 06:18:30;;;;;;;;;;;;;;;;;;5027972;28;89706;-73
2023/06/20 06:20:55;;;;;;;;;;;;;;;;;;5028267;27;89781;-73
2023/06/20 06:23:20;;;;;;;;;;;;;;;;;;5031861;28;90287;-70
2023/06/20 06:25:46;;;;;;;;;;;;;;;;;;5027596;28;89098;-70
2023/06/20 06:28:11;;;;;;;;;;;;;;;;;;5028853;28;89722;-73
2023/06/20 06:30:36;;;;;;;;;;;;;;;;;;5022560;27;89238;-73
2023/06/20 06:33:02;;;;;;;;;;;;;;;;;;5028674;28;90202;-73
2023/06/20 06:35:30;;;;;;;;;;;;;;;;;;5022923;27;90220;-68
2023/06/20 06:37:56;;;;;;;;;;;;;;;;;;5021392;28;89263;-76
2023/06/20 06:40:21;;;;;;;;;;;;;;;;;;5027623;28;89500;-76
2023/06/20 06:42:46;;;;;;;;;;;;;;;;;;5023489;28;90054;-75
2023/06/20 06:45:12;;;;;;;;;;;;;;;;;;5022714;28;89882;-77
2023/06/20 06:47:37;;;;;;;;;;;;;;;;;;5023318;27;91279;-76
2023/06/20 06:50:02;;;;;;;;;;;;;;;;;;5019086;28;89771;-76
2023/06/20 06:52:29;;;;;;;;;;;;;;;;;;5023866;28;90099;-76
2023/06/20 06:54:55;;;;;;;;;;;;;;;;;;5024927;28;90193;-77
2023/06/20 06:57:20;;;;;;;;;;;;;;;;;;5025616;28;92383;-76
2023/06/20 06:59:46;;;;;;;;;;;;;;;;;;5028030;28;89169;-75
2023/06/20 07:02:11;;;;;;;;;;;;;;;;;;5022565;28;90063;-76
2023/06/20 07:04:36;;;;;;;;;;;;;;;;;;5028108;28;89454;-75
2023/06/20 07:07:01;;;;;;;;;;;;;;;;;;5031255;27;89269;-75
2023/06/20 07:09:27;;;;;;;;;;;;;;;;;;5027745;28;89324;-74
2023/06/20 07:11:52;;;;;;;;;;;;;;;;;;5027447;28;89055;-76
2023/06/20 07:14:17;;;;;;;;;;;;;;;;;;5027871;27;92704;-75
2023/06/20 07:16:42;;;;;;;;;;;;;;;;;;5027294;28;89179;-76
2023/06/20 07:19:07;;;;;;;;;;;;;;;;;;5027383;28;89860;-75
2023/06/20 07:21:33;;;;;;;;;;;;;;;;;;5027893;28;89764;-75
2023/06/20 07:23:58;;;;;;;;;;;;;;;;;;5025822;28;89367;-75
2023/06/20 07:26:23;;;;;;;;;;;;;;;;;;5026105;28;89458;-74
2023/06/20 07:28:48;;;;;;;;;;;;;;;;;;5028914;28;89882;-75
2023/06/20 07:31:17;;;;;;;;;;;;;;;;;;5027220;28;89433;-76
2023/06/20 07:33:42;;;;;;;;;;;;;;;;;;5028259;28;89914;-76
2023/06/20 07:36:07;;;;;;;;;;;;;;;;;;5025063;28;89314;-75
2023/06/20 07:38:33;;;;;;;;;;;;;;;;;;5027562;28;89544;-75
2023/06/20 07:40:59;;;;;;;;;;;;;;;;;;5027373;28;90007;-74
2023/06/20 07:43:24;;;;;;;;;;;;;;;;;;5025903;27;89953;-75
2023/06/20 07:45:50;;;;;;;;;;;;;;;;;;5021982;28;89272;-76
2023/06/20 07:48:15;;;;;;;;;;;;;;;;;;5024003;28;90564;-75
2023/06/20 07:50:40;;;;;;;;;;;;;;;;;;5028130;28;89934;-74
2023/06/20 07:53:06;;;;;;;;;;;;;;;;;;5025954;27;90683;-74
2023/06/20 07:55:31;;;;;;;;;;;;;;;;;;5026308;28;89222;-74
2023/06/20 07:57:56;;;;;;;;;;;;;;;;;;5039912;27;90224;-75
2023/06/20 08:00:23;;;;;;;;;;;;;;;;;;5024431;28;89883;-75
2023/06/20 08:02:48;;;;;;;;;;;;;;;;;;5022813;27;89247;-75
2023/06/20 08:05:13;;;;;;;;;;;;;;;;;;5025441;28;89464;-76
2023/06/20 08:07:38;;;;;;;;;;;;;;;;;;5020261;28;89855;-76
2023/06/20 08:10:04;;;;;;;;;;;;;;;;;;5029749;28;89877;-74
2023/06/20 08:12:29;;;;;;;;;;;;;;;;;;5023655;28;92551;-76
2023/06/20 08:14:55;;;;;;;;;;;;;;;;;;5024034;27;89739;-71
2023/06/20 08:17:20;;;;;;;;;;;;;;;;;;5026603;28;90746;-76
2023/06/20 08:19:45;;;;;;;;;;;;;;;;;;5026436;28;88950;-75
2023/06/20 08:22:10;;;;;;;;;;;;;;;;;;5026586;28;90550;-75
2023/06/20 08:24:36;;;;;;;;;;;;;;;;;;5025813;28;90894;-76
2023/06/20 08:27:03;;;;;;;;;;;;;;;;;;5025109;27;89708;-76
2023/06/20 08:29:28;;;;;;;;;;;;;;;;;;5025648;28;92725;-76
2023/06/20 08:31:54;;;;;;;;;;;;;;;;;;5029604;28;89028;-75
2023/06/20 08:34:19;;;;;;;;;;;;;;;;;;5022161;28;89967;-75
2023/06/20 08:36:44;;;;;;;;;;;;;;;;;;5025870;27;89666;-74
2023/06/20 08:39:09;;;;;;;;;;;;;;;;;;5019604;28;93128;-77
2023/06/20 08:41:34;;;;;;;;;;;;;;;;;;5021437;28;89685;-76
2023/06/20 08:44:00;;;;;;;;;;;;;;;;;;5034238;27;91179;-76
2023/06/20 08:46:25;;;;;;;;;;;;;;;;;;5023346;28;89621;-77
2023/06/20 08:48:51;;;;;;;;;;;;;;;;;;5019050;28;91987;-76
2023/06/20 08:51:16;;;;;;;;;;;;;;;;;;5019254;28;90472;-76
2023/06/20 08:53:46;;;;;;;;;;;;;;;;;;5023462;28;89990;-76
2023/06/20 08:56:12;;;;;;;;;;;;;;;;;;5035858;27;89754;-75
2023/06/20 08:58:37;;;;;;;;;;;;;;;;;;5020686;28;90142;-76
2023/06/20 09:01:02;;;;;;;;;;;;;;;;;;5022994;28;89667;-75
2023/06/20 09:03:28;;;;;;;;;;;;;;;;;;5026444;27;89062;-77
2023/06/20 09:05:53;;;;;;;;;;;;;;;;;;5025448;28;90196;-76
2023/06/20 09:08:18;;;;;;;;;;;;;;;;;;5026292;28;89675;-75
2023/06/20 09:10:47;;;;;;;;;;;;;;;;;;5025817;28;89700;-77
2023/06/20 09:13:13;;;;;;;;;;;;;;;;;;5026797;27;89795;-74
2023/06/20 09:15:38;;;;;;;;;;;;;;;;;;5026875;27;89559;-75
2023/06/20 09:18:03;;;;;;;;;;;;;;;;;;5020539;28;89812;-75
2023/06/20 09:20:29;;;;;;;;;;;;;;;;;;5017714;27;89302;-76
2023/06/20 09:22:54;;;;;;;;;;;;;;;;;;5020591;28;90216;-77
2023/06/20 09:25:21;;;;;;;;;;;;;;;;;;5018659;28;89585;-76
2023/06/20 09:27:46;;;;;;;;;;;;;;;;;;5015542;28;90498;-76
2023/06/20 09:30:11;;;;;;;;;;;;;;;;;;5017834;28;89612;-76
2023/06/20 09:32:39;;;;;;;;;;;;;;;;;;5022710;28;90688;-75
2023/06/20 09:35:05;;;;;;;;;;;;;;;;;;5018320;28;90072;-75
2023/06/20 09:37:49;;;;;;;;;;;;;;;;;;5019260;28;89726;-77
2023/06/20 09:40:15;;;;;;;;;;;;;;;;;;5015817;28;90386;-77
2023/06/20 09:42:44;;;;;;;;;;;;;;;;;;5024127;27;89016;-73
2023/06/20 09:45:11;;;;;;;;;;;;;;;;;;5022659;28;89746;-75
2023/06/20 09:47:37;;;;;;;;;;;;;;;;;;5015838;28;89274;-78
2023/06/20 09:50:07;;;;;;;;;;;;;;;;;;5014769;28;91529;-76
2023/06/20 09:52:36;;;;;;;;;;;;;;;;;;5033164;27;92975;-79
2023/06/20 09:55:06;;;;;;;;;;;;;;;;;;5013680;28;89755;-74
2023/06/20 09:57:35;;;;;;;;;;;;;;;;;;5024900;28;89728;-74
2023/06/20 10:00:00;;;;;;;;;;;;;;;;;;5019262;28;89501;-78
2023/06/20 10:02:27;;;;;;;;;;;;;;;;;;5021019;28;89577;-78
2023/06/20 10:04:54;;;;;;;;;;;;;;;;;;5025290;28;89681;-76
2023/06/20 10:07:21;;;;;;;;;;;;;;;;;;5026154;27;89651;-77
2023/06/20 10:09:48;;;;;;;;;;;;;;;;;;5027045;27;89896;-69
2023/06/20 10:12:14;;;;;;;;;;;;;;;;;;5024957;27;89681;-69
2023/06/20 10:14:39;;;;;;;;;;;;;;;;;;5024471;27;89807;-69
2023/06/20 10:17:12;;;;;;;;;;;;;;;;;;5024557;27;89742;-69
2023/06/20 10:19:51;;;;;;;;;;;;;;;;;;5026314;28;90103;-71
2023/06/20 10:22:35;;;;;;;;;;;;;;;;;;5023180;28;89090;-77
2023/06/20 10:25:02;;;;;;;;;;;;;;;;;;5036627;27;91495;-76
2023/06/20 10:27:27;;;;;;;;;;;;;;;;;;5023403;27;90256;-76
2023/06/20 10:29:53;;;;;;;;;;;;;;;;;;5022074;28;89469;-75
2023/06/20 10:32:18;;;;;;;;;;;;;;;;;;5020218;28;90866;-74
2023/06/20 10:34:43;;;;;;;;;;;;;;;;;;5002277;28;92245;-75
2023/06/20 10:37:18;;;;;;;;;;;;;;;;;;5016114;27;89202;-74
2023/06/20 10:39:54;;;;;;;;;;;;;;;;;;5022136;28;89733;-75
2023/06/20 10:42:32;;;;;;;;;;;;;;;;;;5027460;28;89450;-76
2023/06/20 10:45:27;;;;;;;;;;;;;;;;;;5022008;27;90636;-77
2023/06/20 10:47:53;;;;;;;;;;;;;;;;;;5004609;28;89814;-76
2023/06/20 10:50:19;;;;;;;;;;;;;;;;;;5025760;28;89675;-78
2023/06/20 10:52:44;;;;;;;;;;;;;;;;;;5027070;27;90017;-75
2023/06/20 10:55:14;;;;;;;;;;;;;;;;;;5026099;28;92188;-77
2023/06/20 10:57:43;;;;;;;;;;;;;;;;;;5025282;28;89160;-77
2023/06/20 11:00:26;;;;;;;;;;;;;;;;;;5028032;27;89744;-77
2023/06/20 11:02:53;;;;;;;;;;;;;;;;;;5028233;28;89698;-77
2023/06/20 11:05:23;;;;;;;;;;;;;;;;;;5030947;27;89307;-75
2023/06/20 11:07:54;;;;;;;;;;;;;;;;;;5028409;28;89635;-76
2023/06/20 11:10:26;;;;;;;;;;;;;;;;;;5028371;28;89455;-77
2023/06/20 11:12:51;;;;;;;;;;;;;;;;;;5028172;28;89753;-77
2023/06/20 11:15:27;;;;;;;;;;;;;;;;;;5024293;28;89738;-76
2023/06/20 11:17:53;;;;;;;;;;;;;;;;;;5024433;28;91271;-74
2023/06/20 11:20:20;;;;;;;;;;;;;;;;;;5025237;28;89788;-74
2023/06/20 11:22:46;;;;;;;;;;;;;;;;;;5026739;27;89421;-72
2023/06/20 11:25:11;;;;;;;;;;;;;;;;;;5022291;28;89824;-75
2023/06/20 11:27:38;;;;;;;;;;;;;;;;;;5023512;28;91042;-72
2023/06/20 11:30:04;;;;;;;;;;;;;;;;;;5022549;27;89666;-72
2023/06/20 11:32:29;;;;;;;;;;;;;;;;;;5023300;28;90671;-75
2023/06/20 11:34:59;;;;;;;;;;;;;;;;;;5019878;28;89532;-75
2023/06/20 11:37:24;;;;;;;;;;;;;;;;;;5017361;28;89988;-74
2023/06/20 11:39:49;;;;;;;;;;;;;;;;;;5022611;27;89731;-72
2023/06/20 11:42:15;;;;;;;;;;;;;;;;;;5017814;28;89072;-79
2023/06/20 11:44:40;;;;;;;;;;;;;;;;;;5017052;28;90038;-72
2023/06/20 11:47:06;;;;;;;;;;;;;;;;;;5021461;28;90637;-78
2023/06/20 11:49:32;;;;;;;;;;;;;;;;;;5024533;28;89294;-75
2023/06/20 11:51:57;;;;;;;;;;;;;;;;;;5018788;27;90421;-77
2023/06/20 11:54:24;;;;;;;;;;;;;;;;;;5021957;27;89793;-72
2023/06/20 11:56:53;;;;;;;;;;;;;;;;;;5027500;28;89897;-81
2023/06/20 11:59:24;;;;;;;;;;;;;;;;;;5025435;28;90102;-78
2023/06/20 12:01:49;;;;;;;;;;;;;;;;;;5018408;28;90185;-81
2023/06/20 12:04:18;;;;;;;;;;;;;;;;;;5026547;28;89535;-77
2023/06/20 12:06:43;;;;;;;;;;;;;;;;;;5027661;27;90545;-75
2023/06/20 12:09:11;;;;;;;;;;;;;;;;;;5027255;28;90294;-75
2023/06/20 12:12:09;;;;;;;;;;;;;;;;;;5026532;28;89671;-76
2023/06/20 12:14:37;;;;;;;;;;;;;;;;;;4990506;28;92318;-79
2023/06/20 12:17:03;;;;;;;;;;;;;;;;;;5026350;27;89107;-73
2023/06/20 12:19:28;;;;;;;;;;;;;;;;;;5027134;28;88981;-76
2023/06/20 12:21:53;;;;;;;;;;;;;;;;;;5022971;28;90112;-79
2023/06/20 12:24:20;;;;;;;;;;;;;;;;;;5022507;28;89155;-77
2023/06/20 12:26:51;;;;;;;;;;;;;;;;;;5022173;27;90224;-75
2023/06/20 12:29:16;;;;;;;;;;;;;;;;;;5025226;27;90015;-81
2023/06/20 12:31:41;;;;;;;;;;;;;;;;;;5037867;27;89067;-77
2023/06/20 12:34:07;;;;;;;;;;;;;;;;;;5026243;28;89314;-75
2023/06/20 12:36:34;;;;;;;;;;;;;;;;;;5027205;28;89930;-75
2023/06/20 12:39:00;;;;;;;;;;;;;;;;;;5026643;28;89963;-79
2023/06/20 12:41:32;;;;;;;;;;;;;;;;;;5033804;27;92097;-76
2023/06/20 12:43:58;;;;;;;;;;;;;;;;;;5028782;27;91656;-79
2023/06/20 12:46:23;;;;;;;;;;;;;;;;;;5026575;28;89865;-78
2023/06/20 12:48:48;;;;;;;;;;;;;;;;;;5025781;28;89637;-78
2023/06/20 12:51:14;;;;;;;;;;;;;;;;;;5026778;27;89654;-80
2023/06/20 12:53:40;;;;;;;;;;;;;;;;;;5034627;27;90795;-79
2023/06/20 12:56:06;;;;;;;;;;;;;;;;;;5024000;27;89461;-73
2023/06/20 12:58:33;;;;;;;;;;;;;;;;;;5023026;28;91053;-76
2023/06/20 13:00:59;;;;;;;;;;;;;;;;;;5019753;27;89769;-77
2023/06/20 13:03:26;;;;;;;;;;;;;;;;;;5021368;28;90016;-77
2023/06/20 13:05:51;;;;;;;;;;;;;;;;;;5025786;28;90137;-75
2023/06/20 13:08:18;;;;;;;;;;;;;;;;;;5026496;27;89585;-77
2023/06/20 13:10:44;;;;;;;;;;;;;;;;;;5034324;27;89065;-77
2023/06/20 13:13:09;;;;;;;;;;;;;;;;;;5022115;28;91630;-82
2023/06/20 13:15:34;;;;;;;;;;;;;;;;;;5021228;28;90406;-79
2023/06/20 13:18:04;;;;;;;;;;;;;;;;;;5022395;28;91124;-75
2023/06/20 13:20:30;;;;;;;;;;;;;;;;;;5020353;28;89668;-81
2023/06/20 13:22:56;;;;;;;;;;;;;;;;;;5021535;28;90380;-76
2023/06/20 13:25:21;;;;;;;;;;;;;;;;;;5026392;28;90486;-79
2023/06/20 13:27:48;;;;;;;;;;;;;;;;;;5024926;28;91844;-76
2023/06/20 13:30:15;;;;;;;;;;;;;;;;;;5025319;28;89210;-79
2023/06/20 13:32:40;;;;;;;;;;;;;;;;;;5025872;28;90773;-77
2023/06/20 13:35:07;;;;;;;;;;;;;;;;;;5024374;27;89751;-77
2023/06/20 13:37:32;;;;;;;;;;;;;;;;;;5014654;28;89732;-71
2023/06/20 13:39:57;;;;;;;;;;;;;;;;;;5020212;27;90638;-76
2023/06/20 13:42:23;;;;;;;;;;;;;;;;;;5023252;28;89568;-81
2023/06/20 13:44:48;;;;;;;;;;;;;;;;;;5019031;28;90167;-78
2023/06/20 13:47:14;;;;;;;;;;;;;;;;;;5021081;28;91871;-77
2023/06/20 13:49:39;;;;;;;;;;;;;;;;;;5026618;27;89099;-75
2023/06/20 13:52:04;;;;;;;;;;;;;;;;;;5026042;28;89014;-74
2023/06/20 13:54:30;;;;;;;;;;;;;;;;;;5023157;27;91886;-72
2023/06/20 13:56:55;;;;;;;;;;;;;;;;;;5020668;27;91072;-73
2023/06/20 13:59:20;;;;;;;;;;;;;;;;;;5022194;28;92637;-74
2023/06/20 14:01:45;;;;;;;;;;;;;;;;;;5023155;27;90184;-79
2023/06/20 14:04:11;;;;;;;;;;;;;;;;;;5016538;28;89897;-80
2023/06/20 14:06:36;;;;;;;;;;;;;;;;;;5021474;28;90928;-78
2023/06/20 14:09:03;;;;;;;;;;;;;;;;;;5022494;27;89820;-80
2023/06/20 14:11:29;;;;;;;;;;;;;;;;;;5020892;28;89715;-79
2023/06/20 14:13:54;;;;;;;;;;;;;;;;;;5021523;28;89623;-78
2023/06/20 14:16:21;;;;;;;;;;;;;;;;;;5032133;27;90165;-79
2023/06/20 14:18:46;;;;;;;;;;;;;;;;;;5020228;27;90050;-77
2023/06/20 14:21:12;;;;;;;;;;;;;;;;;;5024984;28;89693;-76
2023/06/20 14:23:38;;;;;;;;;;;;;;;;;;5023790;27;89696;-78
2023/06/20 14:26:03;;;;;;;;;;;;;;;;;;5020352;28;90239;-76
2023/06/20 14:28:29;;;;;;;;;;;;;;;;;;5024161;28;90890;-75
2023/06/20 14:30:54;;;;;;;;;;;;;;;;;;5029114;27;90490;-81
2023/06/20 14:33:19;;;;;;;;;;;;;;;;;;5028100;28;89554;-73
2023/06/20 14:35:46;;;;;;;;;;;;;;;;;;5023988;27;89962;-72
2023/06/20 14:38:11;;;;;;;;;;;;;;;;;;5024374;27;90296;-72
2023/06/20 14:40:36;;;;;;;;;;;;;;;;;;5028114;27;91154;-76
2023/06/20 14:43:02;;;;;;;;;;;;;;;;;;5020868;28;90188;-76
2023/06/20 14:45:27;;;;;;;;;;;;;;;;;;5022736;28;91812;-74
2023/06/20 14:47:52;;;;;;;;;;;;;;;;;;5026022;28;89151;-74
2023/06/20 14:50:21;;;;;;;;;;;;;;;;;;5029249;28;88985;-76
2023/06/20 14:52:46;;;;;;;;;;;;;;;;;;5022269;27;90713;-74
2023/06/20 14:55:12;;;;;;;;;;;;;;;;;;5023221;28;89618;-72
2023/06/20 14:57:37;;;;;;;;;;;;;;;;;;5028237;28;89763;-76
2023/06/20 15:00:03;;;;;;;;;;;;;;;;;;5021799;28;89333;-78
2023/06/20 15:02:28;;;;;;;;;;;;;;;;;;5029813;28;89092;-77
2023/06/20 15:04:53;;;;;;;;;;;;;;;;;;5027999;27;90093;-78
2023/06/20 15:07:18;;;;;;;;;;;;;;;;;;5027522;28;90515;-77
2023/06/20 15:09:44;;;;;;;;;;;;;;;;;;5026045;28;92721;-80
2023/06/20 15:12:12;;;;;;;;;;;;;;;;;;5024583;28;89601;-73
2023/06/20 15:14:38;;;;;;;;;;;;;;;;;;5029200;27;89511;-73
2023/06/20 15:17:03;;;;;;;;;;;;;;;;;;5036403;27;92468;-75
2023/06/20 15:19:28;;;;;;;;;;;;;;;;;;5028108;27;89367;-74
2023/06/20 15:21:53;;;;;;;;;;;;;;;;;;5027702;27;89353;-75
2023/06/20 15:24:19;;;;;;;;;;;;;;;;;;5028992;28;89724;-72
2023/06/20 15:26:44;;;;;;;;;;;;;;;;;;5028247;28;90214;-75
2023/06/20 15:29:10;;;;;;;;;;;;;;;;;;5027955;28;89956;-75
2023/06/20 15:31:35;;;;;;;;;;;;;;;;;;5020844;28;91811;-76
2023/06/20 15:34:00;;;;;;;;;;;;;;;;;;5027234;28;89042;-77
2023/06/20 15:36:25;;;;;;;;;;;;;;;;;;5027917;28;88986;-78
2023/06/20 15:38:50;;;;;;;;;;;;;;;;;;5027627;27;90059;-78
2023/06/20 15:41:16;;;;;;;;;;;;;;;;;;5022101;28;89513;-73
2023/06/20 15:43:41;;;;;;;;;;;;;;;;;;5021943;28;89699;-71
2023/06/20 15:46:08;;;;;;;;;;;;;;;;;;5029659;27;90217;-73
2023/06/20 15:48:36;;;;;;;;;;;;;;;;;;5023186;27;91071;-72
2023/06/20 15:51:01;;;;;;;;;;;;;;;;;;5025994;28;91214;-73
2023/06/20 15:53:26;;;;;;;;;;;;;;;;;;5027053;28;90669;-73
2023/06/20 15:55:51;;;;;;;;;;;;;;;;;;5022589;28;89568;-72
2023/06/20 15:58:17;;;;;;;;;;;;;;;;;;5041700;27;91242;-72
2023/06/20 16:00:42;;;;;;;;;;;;;;;;;;5025693;28;89493;-77
2023/06/20 16:03:07;;;;;;;;;;;;;;;;;;5026453;28;89741;-76
2023/06/20 16:05:32;;;;;;;;;;;;;;;;;;5025773;28;89668;-77
2023/06/20 16:07:57;;;;;;;;;;;;;;;;;;5030321;28;89039;-78
2023/06/20 16:10:23;;;;;;;;;;;;;;;;;;5027419;28;89590;-73
2023/06/20 16:12:48;;;;;;;;;;;;;;;;;;5034770;27;90235;-71
2023/06/20 16:15:13;;;;;;;;;;;;;;;;;;5025071;28;89821;-76
2023/06/20 16:17:39;;;;;;;;;;;;;;;;;;5027285;28;90354;-77
2023/06/20 16:20:06;;;;;;;;;;;;;;;;;;5026907;27;89403;-78
2023/06/20 16:22:32;;;;;;;;;;;;;;;;;;5026427;27;89841;-74
2023/06/20 16:24:57;;;;;;;;;;;;;;;;;;5026361;28;89480;-76
2023/06/20 16:27:22;;;;;;;;;;;;;;;;;;5033647;27;89032;-80
2023/06/20 16:29:47;;;;;;;;;;;;;;;;;;5029374;27;89877;-78
2023/06/20 16:32:13;;;;;;;;;;;;;;;;;;5027912;28;89737;-77
2023/06/20 16:34:38;;;;;;;;;;;;;;;;;;5022858;27;90172;-75
2023/06/20 16:37:04;;;;;;;;;;;;;;;;;;5026577;28;89560;-78
2023/06/20 16:39:29;;;;;;;;;;;;;;;;;;5036140;27;90139;-77
2023/06/20 16:41:55;;;;;;;;;;;;;;;;;;5027307;28;89636;-77